Time;durP1;ratioP1;P1;durP2;ratioP2;P2;SDS_P1;SDS_P2;PMS_P1;PMS_P2;Temp;Humidity;BMP_temperature;BMP_pressure;BME280_temperature;BME280_humidity;BME280_pressure;Samples;Min_cycle;Max_cycle;Signal;HPM_P1;HPM_P2
2023/03/23 00:01:37;;;;;;;73.50;35.43;;;;;;;5.74;73.32;100291.28;1457619;89;23078;-81
2023/03/23 00:04:04;;;;;;;74.93;33.60;;;;;;;5.69;73.92;100296.05;1453171;89;23334;-80
2023/03/23 00:06:32;;;;;;;75.03;34.47;;;;;;;5.67;74.11;100296.67;1449708;90;22104;-80
2023/03/23 00:09:03;;;;;;;72.57;30.20;;;;;;;5.65;74.14;100292.02;1454686;90;22170;-80
2023/03/23 00:11:33;;;;;;;61.40;29.50;;;;;;;5.64;74.72;100287.24;1454128;89;23034;-80
2023/03/23 00:14:01;;;;;;;69.00;31.02;;;;;;;5.62;75.36;100290.94;1447525;90;21376;-80
2023/03/23 00:16:37;;;;;;;72.20;33.37;;;;;;;5.62;75.10;100292.25;1448053;89;22381;-81
2023/03/23 00:19:06;;;;;;;71.80;33.53;;;;;;;5.63;74.73;100293.91;1457937;89;22311;-81
2023/03/23 00:21:38;;;;;;;80.30;34.87;;;;;;;5.61;74.60;100295.36;1443729;90;22106;-80
2023/03/23 00:24:12;;;;;;;81.60;34.73;;;;;;;5.58;74.91;100293.42;1456790;89;22171;-79
2023/03/23 00:26:40;;;;;;;74.73;37.40;;;;;;;5.55;75.17;100294.98;1455856;89;21700;-78
2023/03/23 00:29:23;;;;;;;68.77;33.20;;;;;;;5.50;74.41;100290.58;1449851;89;22297;-80
2023/03/23 00:31:52;;;;;;;69.67;32.63;;;;;;;5.46;74.25;100289.13;1453970;89;22168;-79
2023/03/23 00:34:22;;;;;;;64.33;31.50;;;;;;;5.33;74.84;100282.20;1452762;89;22280;-80
2023/03/23 00:36:53;;;;;;;65.70;29.57;;;;;;;5.33;74.84;100282.20;1450592;89;22031;-80
2023/03/23 00:39:19;;;;;;;62.93;29.00;;;;;;;5.32;75.97;100291.04;1457166;89;23481;-80
2023/03/23 00:41:47;;;;;;;60.20;29.53;;;;;;;5.32;74.66;100290.19;1452995;89;21472;-81
2023/03/23 00:44:16;;;;;;;55.97;28.97;;;;;;;5.34;75.62;100284.34;1439257;89;22115;-80
2023/03/23 00:46:48;;;;;;;63.43;29.97;;;;;;;5.34;75.62;100284.34;1450366;90;22169;-80
2023/03/23 00:49:19;;;;;;;54.90;27.57;;;;;;;5.36;75.21;100276.72;1449340;89;21914;-80
2023/03/23 00:51:46;;;;;;;51.35;25.68;;;;;;;5.36;75.21;100276.72;1457762;89;22644;-80
2023/03/23 00:54:12;;;;;;;54.27;29.97;;;;;;;5.38;74.89;100279.20;1451044;89;21361;-80
2023/03/23 00:56:39;;;;;;;49.10;25.23;;;;;;;5.38;74.89;100279.20;1453001;89;22123;-79
2023/03/23 00:59:06;;;;;;;52.50;24.83;;;;;;;5.37;75.42;100278.38;1448357;89;23063;-80
2023/03/23 01:01:33;;;;;;;55.87;27.70;;;;;;;5.36;75.40;100278.03;1450862;89;21948;-81
2023/03/23 01:04:03;;;;;;;48.13;26.00;;;;;;;5.33;76.34;100282.20;1449156;90;22790;-80
2023/03/23 01:06:38;;;;;;;58.27;26.57;;;;;;;5.29;76.25;100275.50;1456838;89;21824;-80
2023/03/23 01:09:07;;;;;;;53.37;26.83;;;;;;;5.24;76.78;100286.84;1448441;89;22961;-80
2023/03/23 01:11:34;;;;;;;52.70;27.40;;;;;;;5.24;76.78;100286.84;1447164;90;22011;-80
2023/03/23 01:14:01;;;;;;;52.40;26.23;;;;;;;5.28;76.31;100280.41;1458272;89;22071;-80
2023/03/23 01:16:28;;;;;;;46.93;27.00;;;;;;;5.28;76.31;100280.41;1456615;89;22042;-80
2023/03/23 01:18:54;;;;;;;46.50;26.93;;;;;;;5.31;75.86;100273.61;1451880;89;22255;-80
2023/03/23 01:21:22;;;;;;;54.73;27.93;;;;;;;5.31;75.86;100270.25;1454356;89;21859;-79
2023/03/23 01:23:48;;;;;;;50.80;27.30;;;;;;;5.29;75.92;100270.25;1444309;90;22130;-80
2023/03/23 01:26:21;;;;;;;50.13;27.27;;;;;;;5.29;76.29;100275.50;1458627;89;22123;-79
2023/03/23 01:28:49;;;;;;;52.70;27.53;;;;;;;5.24;76.17;100278.98;1457224;89;22087;-80
2023/03/23 01:31:19;;;;;;;46.33;23.90;;;;;;;5.24;76.17;100278.98;1437766;90;21960;-80
2023/03/23 01:33:46;;;;;;;49.47;26.70;;;;;;;5.14;76.37;100277.99;1452653;89;22661;-80
2023/03/23 01:36:19;;;;;;;44.47;24.57;;;;;;;5.14;76.37;100277.99;1459632;89;22072;-80
2023/03/23 01:38:47;;;;;;;47.70;24.10;;;;;;;5.07;76.85;100278.11;1456910;89;22415;-79
2023/03/23 01:41:15;;;;;;;48.47;24.13;;;;;;;5.07;76.85;100278.11;1450737;89;22695;-81
2023/03/23 01:44:03;;;;;;;38.73;21.43;;;;;;;5.11;77.12;100275.61;1452046;90;21957;-80
2023/03/23 01:46:35;;;;;;;41.57;22.27;;;;;;;5.13;76.66;100282.89;1453882;89;22696;-80
2023/03/23 01:49:10;;;;;;;40.10;23.17;;;;;;;5.11;76.93;100280.84;1449447;89;21886;-80
2023/03/23 01:51:50;;;;;;;48.07;25.93;;;;;;;5.07;76.97;100278.11;1436191;89;22958;-81
2023/03/23 01:54:20;;;;;;;42.53;24.17;;;;;;;5.07;76.97;100278.11;1451140;89;23236;-80
2023/03/23 01:57:01;;;;;;;47.45;25.50;;;;;;;5.04;76.42;100276.55;1458806;90;21803;-81
2023/03/23 01:59:30;;;;;;;39.80;19.87;;;;;;;5.01;76.58;100281.20;1459630;90;21376;-80
2023/03/23 02:01:56;;;;;;;36.33;21.90;;;;;;;4.95;77.21;100272.84;1447001;89;22323;-80
2023/03/23 02:04:25;;;;;;;42.33;24.57;;;;;;;4.91;76.54;100274.00;1444457;89;21810;-80
2023/03/23 02:06:54;;;;;;;36.67;22.23;;;;;;;4.89;76.72;100271.98;1449283;89;22844;-80
2023/03/23 02:09:21;;;;;;;36.90;22.67;;;;;;;4.87;77.37;100270.42;1454312;89;21824;-80
2023/03/23 02:11:49;;;;;;;37.67;23.10;;;;;;;4.87;77.37;100270.42;1458824;89;22063;-80
2023/03/23 02:14:17;;;;;;;44.70;23.30;;;;;;;4.90;77.40;100268.41;1458559;90;21953;-80
2023/03/23 02:17:12;;;;;;;41.30;22.97;;;;;;;4.88;77.16;100260.29;1454697;90;22024;-80
2023/03/23 02:20:21;;;;;;;33.87;21.37;;;;;;;4.92;77.21;100270.89;1454341;89;22092;-80
2023/03/23 02:23:17;;;;;;;31.67;19.77;;;;;;;4.87;77.23;100272.56;1449558;89;22091;-80
2023/03/23 02:26:13;;;;;;;38.30;22.37;;;;;;;4.87;77.23;100272.56;1445177;89;21806;-80
2023/03/23 02:28:57;;;;;;;36.50;21.90;;;;;;;4.82;77.45;100278.63;1455150;90;21802;-80
2023/03/23 02:31:41;;;;;;;36.27;22.07;;;;;;;4.74;77.50;100277.05;1450211;90;22730;-79
2023/03/23 02:34:28;;;;;;;37.73;22.60;;;;;;;4.69;77.90;100287.02;1453715;89;21710;-81
2023/03/23 02:37:05;;;;;;;31.47;21.47;;;;;;;4.59;78.32;100288.19;1452328;90;22626;-80
2023/03/23 02:39:39;;;;;;;39.43;22.47;;;;;;;4.43;79.26;100281.94;1456787;89;21715;-81
2023/03/23 02:42:10;;;;;;;34.93;21.93;;;;;;;4.43;79.26;100281.94;1452785;89;21993;-80
2023/03/23 02:44:41;;;;;;;32.63;20.05;;;;;;;4.45;78.72;100296.23;1458452;89;22575;-81
2023/03/23 02:47:18;;;;;;;37.88;21.50;;;;;;;4.42;79.76;100295.97;1453587;90;21324;-81
2023/03/23 02:49:49;;;;;;;36.60;21.20;;;;;;;4.43;79.24;100296.80;1451795;89;21487;-81
2023/03/23 02:52:20;;;;;;;38.55;23.30;;;;;;;4.41;79.36;100298.23;1458030;89;22554;-81
2023/03/23 02:54:49;;;;;;;40.67;22.67;;;;;;;4.39;79.83;100301.44;1448950;89;21369;-80
2023/03/23 02:57:16;;;;;;;34.13;20.63;;;;;;;4.35;79.05;100298.69;1456333;89;21613;-81
2023/03/23 02:59:42;;;;;;;39.43;23.93;;;;;;;4.31;79.25;100299.84;1460922;90;21869;-81
2023/03/23 03:02:14;;;;;;;37.03;20.37;;;;;;;4.26;79.00;100298.05;1448971;89;21771;-81
2023/03/23 03:04:43;;;;;;;41.07;22.30;;;;;;;4.24;78.44;100298.63;1453075;89;21680;-80
2023/03/23 03:07:24;;;;;;;33.60;19.80;;;;;;;4.20;79.65;100298.02;1458534;90;21831;-81
2023/03/23 03:10:01;;;;;;;35.10;20.97;;;;;;;4.18;80.65;100302.99;1453476;89;21643;-80
2023/03/23 03:12:36;;;;;;;34.50;20.57;;;;;;;4.14;81.22;100301.04;1450222;89;21591;-80
2023/03/23 03:15:11;;;;;;;32.03;19.63;;;;;;;4.15;80.36;100300.59;1446039;90;21686;-80
2023/03/23 03:17:43;;;;;;;35.27;21.50;;;;;;;4.15;80.26;100297.98;1447480;89;21797;-80
2023/03/23 03:20:13;;;;;;;37.30;21.03;;;;;;;4.14;79.99;100296.28;1450759;90;21596;-80
2023/03/23 03:22:43;;;;;;;37.83;22.48;;;;;;;4.13;79.87;100294.14;1451952;89;22786;-79
2023/03/23 03:25:16;;;;;;;38.07;21.90;;;;;;;4.10;79.62;100292.22;1446383;90;21397;-80
2023/03/23 03:27:45;;;;;;;40.70;22.82;;;;;;;4.06;79.21;100296.38;1456218;89;21576;-79
2023/03/23 03:30:16;;;;;;;37.43;22.80;;;;;;;4.01;79.92;100297.16;1452917;89;21457;-80
2023/03/23 03:32:48;;;;;;;32.90;20.80;;;;;;;3.94;82.23;100313.41;1459435;89;21466;-80
2023/03/23 03:35:15;;;;;;;34.67;21.03;;;;;;;3.85;83.03;100316.20;1453092;89;21464;-80
2023/03/23 03:37:42;;;;;;;33.07;20.43;;;;;;;3.83;81.27;100314.17;1456634;89;21616;-80
2023/03/23 03:40:14;;;;;;;33.60;20.37;;;;;;;3.84;81.15;100317.15;1456343;90;21567;-80
2023/03/23 03:42:43;;;;;;;32.57;18.73;;;;;;;3.87;80.88;100319.55;1447806;90;22492;-80
2023/03/23 03:45:14;;;;;;;32.90;19.30;;;;;;;3.90;80.71;100318.03;1443228;89;22595;-80
2023/03/23 03:47:40;;;;;;;34.98;20.32;;;;;;;3.93;80.41;100324.83;1456602;89;21528;-80
2023/03/23 03:50:08;;;;;;;34.47;21.50;;;;;;;3.93;80.58;100329.59;1452778;89;22444;-79
2023/03/23 03:52:35;;;;;;;38.90;22.73;;;;;;;3.91;80.73;100335.40;1457845;89;21655;-81
2023/03/23 03:55:02;;;;;;;36.37;20.87;;;;;;;3.89;80.11;100329.94;1452043;89;22605;-80
2023/03/23 03:57:28;;;;;;;36.23;21.13;;;;;;;3.87;80.01;100330.03;1452550;89;21677;-80
2023/03/23 03:59:54;;;;;;;40.23;23.33;;;;;;;3.83;79.57;100328.09;1456249;89;21919;-80
2023/03/23 04:02:21;;;;;;;33.63;19.77;;;;;;;3.82;79.63;100330.33;1450597;89;21619;-79
2023/03/23 04:04:49;;;;;;;33.83;20.23;;;;;;;3.80;80.60;100330.10;1452468;90;21802;-80
2023/03/23 04:07:17;;;;;;;31.07;19.40;;;;;;;3.78;80.83;100329.36;1448877;89;21583;-80
2023/03/23 04:09:50;;;;;;;29.53;17.40;;;;;;;3.79;80.50;100327.09;1452573;89;21642;-80
2023/03/23 04:12:15;;;;;;;28.83;20.13;;;;;;;3.83;79.99;100327.27;1452252;89;21953;-80
2023/03/23 04:14:41;;;;;;;38.07;19.70;;;;;;;3.87;80.73;100329.20;1466932;89;21605;-78
2023/03/23 04:17:08;;;;;;;34.80;19.33;;;;;;;3.93;81.02;100331.38;1451984;89;21665;-80
2023/03/23 04:19:37;;;;;;;36.03;20.63;;;;;;;3.97;81.29;100328.45;1452523;89;22634;-81
2023/03/23 04:22:05;;;;;;;34.30;21.27;;;;;;;4.01;80.68;100336.45;1460564;89;21502;-80
2023/03/23 04:24:33;;;;;;;31.53;20.63;;;;;;;4.01;80.64;100332.52;1444223;89;21622;-82
2023/03/23 04:27:00;;;;;;;36.50;20.33;;;;;;;4.04;80.73;100332.30;1455272;89;21573;-81
2023/03/23 04:29:27;;;;;;;34.10;20.30;;;;;;;4.04;80.65;100332.30;1452999;89;21634;-80
2023/03/23 04:31:55;;;;;;;36.07;21.80;;;;;;;4.06;81.01;100327.80;1452474;89;21776;-81
2023/03/23 04:34:23;;;;;;;30.97;18.40;;;;;;;4.08;80.86;100331.60;1455024;89;21783;-80
2023/03/23 04:36:50;;;;;;;32.07;18.43;;;;;;;4.12;80.89;100322.59;1457187;89;22608;-80
2023/03/23 04:39:17;;;;;;;31.10;18.33;;;;;;;4.17;81.46;100330.11;1458971;89;21746;-80
2023/03/23 04:41:45;;;;;;;33.27;19.97;;;;;;;4.21;82.12;100329.80;1450932;90;21603;-81
2023/03/23 04:44:17;;;;;;;31.37;19.60;;;;;;;4.31;81.92;100337.83;1452839;89;21838;-82
2023/03/23 04:46:40;;;;;;;33.57;19.10;;;;;;;4.31;81.92;100337.83;1451057;90;22395;-81
2023/03/23 04:49:07;;;;;;;38.13;20.27;;;;;;;4.38;81.46;100331.70;1451826;89;21934;-79
2023/03/23 04:51:35;;;;;;;34.13;20.53;;;;;;;4.48;80.85;100326.97;1448401;89;22596;-80
2023/03/23 04:54:01;;;;;;;32.73;19.77;;;;;;;4.59;81.84;100335.85;1449881;89;21782;-80
2023/03/23 04:56:28;;;;;;;31.43;19.73;;;;;;;4.58;82.77;100341.58;1455048;89;21961;-81
2023/03/23 04:58:54;;;;;;;32.20;19.50;;;;;;;4.63;81.66;100346.02;1452972;89;21911;-81
2023/03/23 05:01:21;;;;;;;29.90;19.80;;;;;;;4.63;81.66;100346.02;1448044;89;21932;-81
2023/03/23 05:03:47;;;;;;;31.57;18.23;;;;;;;4.72;81.48;100343.20;1452060;89;21831;-81
2023/03/23 05:06:14;;;;;;;28.50;18.57;;;;;;;4.82;81.47;100342.88;1448829;90;21829;-81
2023/03/23 05:08:40;;;;;;;34.60;21.53;;;;;;;5.04;80.81;100347.86;1450505;90;22197;-79
2023/03/23 05:11:08;;;;;;;28.07;18.23;;;;;;;5.04;80.81;100347.86;1456965;89;22096;-80
2023/03/23 05:13:34;;;;;;;35.57;21.83;;;;;;;5.21;80.51;100343.50;1451527;89;22906;-81
2023/03/23 05:16:06;;;;;;;151.17;77.90;;;;;;;5.21;80.51;100343.50;1450409;89;22098;-81
2023/03/23 05:18:32;;;;;;;33.27;21.20;;;;;;;5.39;79.49;100349.97;1454653;89;22108;-81
2023/03/23 05:21:04;;;;;;;35.07;20.73;;;;;;;5.39;79.49;100349.97;1450639;89;22148;-80
2023/03/23 05:23:30;;;;;;;35.53;20.60;;;;;;;5.52;79.16;100356.91;1451134;89;22215;-81
2023/03/23 05:32:51;;;;;;;31.87;18.40;;;;;;;5.74;78.52;100351.69;1433025;91;22211;-81
2023/03/23 05:35:20;;;;;;;27.50;17.67;;;;;;;5.94;78.54;100359.86;1427635;91;22034;-81
2023/03/23 05:37:46;;;;;;;30.80;18.73;;;;;;;6.11;78.52;100359.37;1426200;91;22395;-80
2023/03/23 05:40:13;;;;;;;28.47;18.40;;;;;;;6.27;78.21;100357.22;1427708;91;22286;-81
2023/03/23 05:42:40;;;;;;;32.23;19.20;;;;;;;6.58;77.42;100361.31;1423748;91;21478;-81
2023/03/23 05:45:11;;;;;;;30.03;18.47;;;;;;;6.58;77.42;100361.31;1428282;91;21545;-80
2023/03/23 05:47:40;;;;;;;27.60;18.93;;;;;;;6.71;77.10;100359.37;1423811;91;21590;-80
2023/03/23 05:50:12;;;;;;;31.20;20.50;;;;;;;6.89;76.89;100364.10;1356466;91;22180;-81
2023/03/23 05:52:39;;;;;;;26.63;18.90;;;;;;;7.02;76.40;100363.46;1510258;91;21310;-81
2023/03/23 05:55:07;;;;;;;28.03;18.53;;;;;;;7.20;76.08;100365.05;1510221;91;21280;-80
2023/03/23 05:57:34;;;;;;;32.20;19.57;;;;;;;7.37;75.84;100368.91;1507683;91;21480;-81
2023/03/23 06:00:05;;;;;;;24.27;17.83;;;;;;;7.55;75.34;100366.03;1470608;90;22197;-81
2023/03/23 06:02:29;;;;;;;29.10;17.50;;;;;;;7.67;74.87;100367.62;1534669;89;22167;-82
2023/03/23 06:04:57;;;;;;;27.80;19.00;;;;;;;7.81;74.64;100368.26;1379766;90;22218;-81
2023/03/23 06:07:25;;;;;;;33.10;18.53;;;;;;;7.93;74.39;100364.56;1377991;89;21317;-78
2023/03/23 06:09:52;;;;;;;29.97;20.07;;;;;;;8.06;74.35;100363.03;1533961;90;21295;-81
2023/03/23 06:12:20;;;;;;;29.83;17.13;;;;;;;8.19;74.27;100364.94;1390052;90;21346;-81
2023/03/23 06:14:49;;;;;;;26.27;17.43;;;;;;;8.33;73.89;100362.42;1535525;89;21199;-81
2023/03/23 06:17:17;;;;;;;26.47;17.23;;;;;;;8.45;73.59;100356.09;1369272;90;22167;-87
2023/03/23 06:19:46;;;;;;;27.27;17.47;;;;;;;8.56;73.14;100353.34;1384215;89;21235;-80
2023/03/23 06:22:12;;;;;;;26.80;17.60;;;;;;;8.68;73.05;100350.58;1513428;90;21352;-78
2023/03/23 06:24:38;;;;;;;33.27;19.07;;;;;;;8.79;72.75;100351.77;1436293;90;22292;-82
2023/03/23 06:27:04;;;;;;;25.53;19.00;;;;;;;8.90;72.44;100355.60;1455560;89;21569;-82
2023/03/23 06:29:31;;;;;;;31.93;17.73;;;;;;;8.98;71.58;100349.15;1453500;89;21368;-81
2023/03/23 06:32:02;;;;;;;26.77;18.60;;;;;;;9.13;71.51;100357.47;1454221;89;21295;-82
2023/03/23 06:34:28;;;;;;;;;;;;;;;9.30;71.15;100354.61;1461377;90;21294;-82
2023/03/23 06:36:55;;;;;;;30.13;18.93;;;;;;;9.48;70.51;100355.55;1454096;90;20292;-82
2023/03/23 06:39:22;;;;;;;26.30;16.63;;;;;;;9.59;68.48;100354.55;1452761;89;21302;-81
2023/03/23 06:41:48;;;;;;;23.67;17.00;;;;;;;9.70;68.53;100361.48;1450425;89;21316;-82
2023/03/23 06:44:15;;;;;;;44.03;16.70;;;;;;;9.79;67.74;100367.23;1453862;89;21382;-81
2023/03/23 06:46:42;;;;;;;32.87;17.97;;;;;;;9.81;67.40;100367.06;1451609;89;21361;-81
2023/03/23 06:49:09;;;;;;;30.27;17.40;;;;;;;9.90;67.95;100364.41;1449072;90;21382;-81
2023/03/23 06:51:37;;;;;;;30.17;18.47;;;;;;;10.00;67.91;100366.17;1456583;89;21590;-81
2023/03/23 06:54:04;;;;;;;30.27;19.37;;;;;;;10.09;67.60;100365.30;1452902;89;21465;-82
2023/03/23 06:56:31;;;;;;;29.10;19.60;;;;;;;10.14;67.51;100367.02;1454844;89;21376;-82
2023/03/23 06:58:58;;;;;;;25.70;16.90;;;;;;;10.25;67.67;100365.52;1450064;89;22440;-81
2023/03/23 07:01:24;;;;;;;46.47;19.40;;;;;;;10.32;67.55;100358.67;1448865;90;21877;-80
2023/03/23 07:03:50;;;;;;;25.57;16.63;;;;;;;10.42;67.24;100357.81;1447004;89;21581;-80
2023/03/23 07:06:17;;;;;;;33.00;17.93;;;;;;;10.48;66.95;100357.21;1462073;89;22366;-79
2023/03/23 07:08:43;;;;;;;27.03;17.07;;;;;;;10.55;66.40;100349.00;1453881;89;21375;-79
2023/03/23 07:11:10;;;;;;;26.47;17.50;;;;;;;10.67;66.27;100350.44;1451157;89;21367;-80
2023/03/23 07:13:36;;;;;;;27.97;16.77;;;;;;;10.80;65.71;100352.23;1443543;89;21434;-80
2023/03/23 07:16:06;;;;;;;23.73;16.87;;;;;;;10.96;65.14;100354.22;1458431;89;21514;-80
2023/03/23 07:18:32;;;;;;;27.87;17.47;;;;;;;11.12;64.32;100348.72;1447097;89;21494;-80
2023/03/23 07:21:00;;;;;;;23.73;16.40;;;;;;;11.22;63.89;100350.77;1462426;89;21464;-77
2023/03/23 07:23:26;;;;;;;22.87;16.13;;;;;;;11.34;63.69;100360.66;1455060;89;22204;-80
2023/03/23 07:25:53;;;;;;;45.73;14.97;;;;;;;11.47;64.10;100361.06;1450988;89;21354;-79
2023/03/23 07:28:20;;;;;;;22.90;14.87;;;;;;;11.55;62.71;100358.98;1461289;89;21301;-79
2023/03/23 07:30:46;;;;;;;24.07;16.23;;;;;;;11.61;62.37;100356.52;1445468;89;22814;-80
2023/03/23 07:33:12;;;;;;;20.27;15.07;;;;;;;11.66;61.63;100362.20;1455266;89;21346;-80
2023/03/23 07:35:39;;;;;;;21.33;15.27;;;;;;;11.72;60.97;100360.24;1455334;90;21381;-80
2023/03/23 07:38:07;;;;;;;25.90;16.87;;;;;;;11.77;61.63;100371.72;1441001;90;22590;-79
2023/03/23 07:40:33;;;;;;;31.53;17.43;;;;;;;11.82;61.51;100368.58;1383047;89;21346;-80
2023/03/23 07:43:02;;;;;;;28.00;16.20;;;;;;;11.90;61.22;100372.14;1416685;89;21523;-80
2023/03/23 07:45:30;;;;;;;24.13;16.23;;;;;;;12.09;61.33;100369.76;1452316;90;21442;-79
2023/03/23 07:47:56;;;;;;;22.33;14.37;;;;;;;12.24;61.24;100371.31;1454990;89;21464;-79
2023/03/23 07:50:24;;;;;;;24.47;16.40;;;;;;;12.39;61.17;100368.87;1449302;89;21405;-79
2023/03/23 07:52:55;;;;;;;27.00;14.63;;;;;;;12.47;60.11;100369.41;1450389;89;21404;-78
2023/03/23 07:55:24;;;;;;;27.20;14.50;;;;;;;12.58;60.15;100373.92;1455542;90;21360;-79
2023/03/23 07:57:51;;;;;;;17.00;12.13;;;;;;;12.75;59.32;100363.34;1451529;89;21570;-80
2023/03/23 08:00:20;;;;;;;22.53;14.67;;;;;;;12.99;59.35;100367.34;1450095;89;21338;-80
2023/03/23 08:02:48;;;;;;;23.40;12.67;;;;;;;13.22;58.81;100369.35;1448515;89;22269;-80
2023/03/23 08:05:16;;;;;;;32.10;12.50;;;;;;;13.32;57.47;100368.70;1456478;89;21427;-80
2023/03/23 08:07:43;;;;;;;22.30;13.27;;;;;;;13.35;57.40;100373.72;1454658;89;21405;-80
2023/03/23 08:10:11;;;;;;;29.17;15.43;;;;;;;13.40;57.08;100375.34;1457743;89;22248;-79
2023/03/23 08:12:42;;;;;;;26.17;14.43;;;;;;;13.43;56.54;100379.00;1462445;89;21575;-79
2023/03/23 08:15:14;;;;;;;24.77;14.47;;;;;;;13.51;56.67;100378.17;1459759;89;21367;-79
2023/03/23 08:17:42;;;;;;;20.30;12.97;;;;;;;13.57;55.86;100380.66;1460511;89;22279;-80
2023/03/23 08:20:15;;;;;;;47.00;25.13;;;;;;;13.69;55.21;100378.80;1455224;90;21531;-79
2023/03/23 08:22:46;;;;;;;28.23;17.40;;;;;;;13.90;55.68;100377.45;1458524;89;22426;-78
2023/03/23 08:25:18;;;;;;;28.90;19.23;;;;;;;14.15;55.17;100380.84;1447497;89;21376;-79
2023/03/23 08:27:43;;;;;;;27.93;14.57;;;;;;;14.37;55.05;100380.60;1453474;90;21508;-79
2023/03/23 08:30:14;;;;;;;20.33;15.97;;;;;;;14.53;53.81;100369.06;1457016;89;21353;-79
2023/03/23 08:32:40;;;;;;;28.13;16.73;;;;;;;14.72;53.12;100360.62;1449955;90;21471;-80
2023/03/23 08:35:09;;;;;;;19.03;13.30;;;;;;;14.94;53.62;100364.33;1457994;89;21523;-80
2023/03/23 08:37:36;;;;;;;23.57;11.93;;;;;;;15.09;51.72;100369.70;1458650;89;22470;-80
2023/03/23 08:40:09;;;;;;;19.50;11.63;;;;;;;15.15;50.21;100368.17;1453654;89;21382;-80
2023/03/23 08:42:38;;;;;;;13.37;10.60;;;;;;;15.34;51.41;100373.02;1449325;89;21413;-81
2023/03/23 08:45:08;;;;;;;18.10;11.97;;;;;;;15.42;51.02;100374.76;1444371;89;21442;-81
2023/03/23 08:47:36;;;;;;;19.67;11.10;;;;;;;15.46;50.38;100378.74;1445771;90;22284;-80
2023/03/23 08:50:06;;;;;;;18.13;11.50;;;;;;;15.58;50.80;100374.62;1453324;90;21435;-80
2023/03/23 08:52:33;;;;;;;16.80;10.77;;;;;;;15.76;50.57;100379.13;1449606;89;21325;-79
2023/03/23 08:54:59;;;;;;;11.30;7.77;;;;;;;15.99;50.19;100379.56;1453004;89;21442;-80
2023/03/23 08:57:29;;;;;;;11.07;6.10;;;;;;;16.20;49.57;100382.33;1432505;91;22506;-80
2023/03/23 08:59:59;;;;;;;9.53;6.00;;;;;;;16.27;45.12;100380.25;1457454;89;21346;-81
2023/03/23 09:02:23;;;;;;;9.23;6.97;;;;;;;16.26;46.13;100386.61;1428142;91;22466;-80
2023/03/23 09:04:50;;;;;;;12.50;8.23;;;;;;;16.30;46.01;100375.36;1457051;89;21478;-81
2023/03/23 09:07:16;;;;;;;15.90;9.13;;;;;;;16.47;46.52;100375.98;1424969;91;21431;-80
2023/03/23 09:09:43;;;;;;;14.97;8.57;;;;;;;16.56;45.74;100378.86;1450977;89;22190;-80
2023/03/23 09:12:10;;;;;;;11.93;7.57;;;;;;;16.61;46.05;100367.62;1431238;91;21356;-80
2023/03/23 09:14:38;;;;;;;16.33;7.17;;;;;;;16.69;45.79;100369.66;1448997;90;22152;-80
2023/03/23 09:17:07;;;;;;;7.23;6.07;;;;;;;16.78;45.16;100371.73;1430494;91;21438;-80
2023/03/23 09:19:35;;;;;;;11.83;6.13;;;;;;;16.82;43.66;100370.84;1453027;89;21567;-81
2023/03/23 09:22:03;;;;;;;8.10;6.33;;;;;;;16.90;44.40;100382.76;1431094;91;21408;-81
2023/03/23 09:24:30;;;;;;;9.50;5.23;;;;;;;17.02;43.67;100373.20;1459432;89;21440;-81
2023/03/23 09:26:58;;;;;;;10.63;5.80;;;;;;;17.17;43.39;100380.34;1424902;91;22273;-81
2023/03/23 09:29:26;;;;;;;7.97;6.03;;;;;;;17.36;43.78;100372.48;1441096;90;21338;-81
2023/03/23 09:31:55;;;;;;;7.67;6.30;;;;;;;17.68;44.12;100372.94;1458599;89;21420;-80
2023/03/23 09:34:22;;;;;;;7.30;5.80;;;;;;;17.92;43.74;100366.83;1452325;89;22465;-79
2023/03/23 09:36:49;;;;;;;12.03;5.20;;;;;;;18.06;42.75;100367.73;1437374;91;21378;-81
2023/03/23 09:39:16;;;;;;;10.77;5.90;;;;;;;18.08;41.50;100368.38;1452355;89;21361;-81
2023/03/23 09:42:20;;;;;;;8.87;5.13;;;;;;;18.06;41.48;100370.41;1456420;89;21560;-79
2023/03/23 09:45:03;;;;;;;10.33;5.70;;;;;;;18.08;42.18;100370.53;1454119;89;21486;-79
2023/03/23 09:47:59;;;;;;;15.50;6.10;;;;;;;18.15;41.42;100371.90;1424838;91;22325;-79
2023/03/23 09:50:32;;;;;;;8.23;5.00;;;;;;;18.25;41.01;100372.37;1451356;88;21619;-81
2023/03/23 09:53:19;;;;;;;8.43;5.30;;;;;;;18.38;41.18;100368.91;1449137;90;22439;-79
2023/03/23 09:55:46;;;;;;;18.20;5.13;;;;;;;18.50;41.23;100372.69;1451992;89;21618;-80
2023/03/23 09:58:35;;;;;;;9.23;4.20;;;;;;;18.67;40.71;100369.11;1408236;91;21424;-81
2023/03/23 10:01:29;;;;;;;6.15;4.78;;;;;;;18.66;38.85;100369.63;1447337;90;22307;-79
2023/03/23 10:04:21;;;;;;;8.57;5.13;;;;;;;18.42;38.41;100369.66;1427550;91;21615;-80
2023/03/23 10:06:47;;;;;;;9.97;6.20;;;;;;;18.33;39.39;100364.17;1451820;89;21390;-81
2023/03/23 10:09:18;;;;;;;7.67;5.50;;;;;;;18.36;40.11;100375.00;1424339;91;21386;-81
2023/03/23 10:11:56;;;;;;;6.12;5.22;;;;;;;18.45;40.00;100361.22;1452622;89;21517;-81
2023/03/23 10:14:40;;;;;;;7.80;5.77;;;;;;;18.45;39.85;100363.08;1429934;91;21563;-79
2023/03/23 10:17:17;;;;;;;9.53;5.50;;;;;;;18.47;39.42;100351.14;1446821;89;21434;-81
2023/03/23 10:20:01;;;;;;;8.40;5.57;;;;;;;18.53;39.33;100356.20;1446465;90;22433;-80
2023/03/23 10:22:37;;;;;;;8.33;5.53;;;;;;;18.62;39.35;100343.45;1448102;90;21419;-80
2023/03/23 10:25:15;;;;;;;9.18;5.53;;;;;;;18.58;39.24;100342.19;1436723;91;21630;-80
2023/03/23 10:28:10;;;;;;;8.53;5.30;;;;;;;18.56;39.63;100339.72;1446777;89;21368;-81
2023/03/23 10:30:41;;;;;;;8.10;5.93;;;;;;;18.59;40.04;100345.20;1457525;90;22196;-80
2023/03/23 10:33:25;;;;;;;7.77;5.40;;;;;;;18.57;38.97;100344.05;1430399;91;21481;-80
2023/03/23 10:36:00;;;;;;;8.73;5.13;;;;;;;18.71;39.81;100338.20;1457877;90;21449;-80
2023/03/23 10:38:33;;;;;;;6.60;5.12;;;;;;;18.83;39.41;100329.91;1427112;91;21600;-80
2023/03/23 10:41:09;;;;;;;8.78;4.87;;;;;;;19.00;39.73;100329.52;1449985;89;21376;-81
2023/03/23 10:43:35;;;;;;;7.87;5.00;;;;;;;19.12;39.16;100323.84;1424048;91;21533;-80
2023/03/23 10:46:16;;;;;;;7.45;5.35;;;;;;;19.17;39.00;100330.77;1446897;90;21531;-81
2023/03/23 10:48:47;;;;;;;6.37;4.83;;;;;;;19.25;38.82;100319.83;1420912;91;21703;-80
2023/03/23 10:51:16;;;;;;;8.20;4.85;;;;;;;19.24;37.29;100320.02;1451396;89;21471;-81
2023/03/23 10:53:52;;;;;;;7.25;5.30;;;;;;;19.17;38.11;100320.03;1424415;91;22182;-80
2023/03/23 10:56:29;;;;;;;5.10;4.42;;;;;;;19.34;38.62;100315.89;1450751;89;21560;-80
2023/03/23 10:58:55;;;;;;;8.55;4.72;;;;;;;19.52;37.95;100318.45;1430674;91;21533;-81
2023/03/23 11:01:37;;;;;;;7.50;4.55;;;;;;;19.76;38.20;100311.09;1450330;88;21412;-80
2023/03/23 11:04:03;;;;;;;5.87;4.30;;;;;;;19.98;37.97;100313.52;1446829;90;21449;-80
2023/03/23 11:06:39;;;;;;;4.92;4.10;;;;;;;19.95;36.14;100312.60;1433168;91;22425;-80
2023/03/23 11:09:18;;;;;;;7.95;4.28;;;;;;;19.84;36.54;100308.18;1453655;89;22234;-81
2023/03/23 11:11:52;;;;;;;7.12;4.05;;;;;;;19.71;36.51;100305.55;1422525;91;21496;-80
2023/03/23 11:14:32;;;;;;;4.95;4.45;;;;;;;19.80;36.90;100298.91;1451190;90;21938;-80
2023/03/23 11:17:03;;;;;;;;;;;;;;;19.76;36.41;100299.01;1455213;89;22344;-80
2023/03/23 11:19:35;;;;;;;6.70;4.17;;;;;;;19.74;36.01;100297.07;1449995;90;20317;-81
2023/03/23 11:22:15;;;;;;;5.17;4.00;;;;;;;19.75;36.14;100298.71;1460260;89;21369;-80
2023/03/23 11:24:47;;;;;;;4.85;4.35;;;;;;;19.73;36.09;100295.41;1431010;91;21475;-80
2023/03/23 11:27:15;;;;;;;7.85;4.08;;;;;;;19.82;36.42;100294.16;1454980;88;21361;-80
2023/03/23 11:29:58;;;;;;;8.13;4.10;;;;;;;19.81;36.17;100290.33;1453465;89;21450;-79
2023/03/23 11:32:31;;;;;;;6.40;3.90;;;;;;;19.85;37.02;100282.14;1435852;91;21327;-80
2023/03/23 11:35:08;;;;;;;4.30;3.67;;;;;;;19.83;36.18;100284.23;1448373;90;21382;-79
2023/03/23 11:37:54;;;;;;;9.75;4.62;;;;;;;19.91;36.45;100281.81;1427085;91;21423;-80
2023/03/23 11:40:25;;;;;;;4.22;3.83;;;;;;;20.06;36.31;100278.37;1454411;88;21361;-79